Time;durP1;ratioP1;P1;durP2;ratioP2;P2;SDS_P1;SDS_P2;PMS_P1;PMS_P2;Temp;Humidity;BMP_temperature;BMP_pressure;BME280_temperature;BME280_humidity;BME280_pressure;Samples;Min_cycle;Max_cycle;Signal;HPM_P1;HPM_P2
2021/05/06 00:06:49;;;;;;;4.75;4.35;;;5.90;99.90;;;;;;5072169;28;20100;-72
2021/05/06 00:09:42;;;;;;;4.72;4.35;;;5.80;99.90;;;;;;5071665;28;20450;-70
2021/05/06 00:33:05;;;;;;;4.63;4.22;;;5.90;99.90;;;;;;5071745;28;20033;-72
2021/05/06 00:35:34;;;;;;;4.80;4.40;;;5.90;99.90;;;;;;5071384;28;20435;-74
2021/05/06 00:40:42;;;;;;;4.72;4.32;;;5.90;99.90;;;;;;5074030;28;20529;-72
2021/05/06 01:04:48;;;;;;;9.60;6.38;;;5.60;99.90;;;;;;5075016;28;20032;-72
2021/05/06 01:10:11;;;;;;;12.13;7.10;;;5.50;99.90;;;;;;5075432;28;20027;-71
2021/05/06 01:12:39;;;;;;;7.70;6.90;;;5.40;99.90;;;;;;5074061;28;20090;-71
2021/05/06 01:15:05;;;;;;;8.98;7.22;;;5.30;99.90;;;;;;5075005;28;20103;-71
2021/05/06 01:17:30;;;;;;;8.60;7.72;;;5.30;99.90;;;;;;5074625;28;20029;-71
2021/05/06 01:19:56;;;;;;;8.10;7.30;;;5.30;99.90;;;;;;5073884;28;20469;-71
2021/05/06 01:22:22;;;;;;;9.27;7.70;;;5.20;99.90;;;;;;5075082;28;20416;-70
2021/05/06 01:24:54;;;;;;;7.45;6.75;;;5.20;99.90;;;;;;5074759;28;20538;-72
2021/05/06 01:27:38;;;;;;;7.60;6.93;;;5.20;99.90;;;;;;5074082;28;20034;-72
2021/05/06 01:32:55;;;;;;;9.57;8.57;;;5.00;99.90;;;;;;5074212;28;20131;-71
2021/05/06 01:35:45;;;;;;;9.27;7.88;;;5.00;99.90;;;;;;5072924;28;20112;-71
2021/05/06 01:40:57;;;;;;;9.90;7.97;;;4.90;99.90;;;;;;5073571;28;20099;-71
2021/05/06 01:43:46;;;;;;;11.15;8.27;;;4.80;99.90;;;;;;5074231;28;20053;-73
2021/05/06 01:49:23;;;;;;;8.32;7.57;;;4.70;99.90;;;;;;5073255;28;20054;-71
2021/05/06 02:00:22;;;;;;;14.30;9.18;;;4.60;99.90;;;;;;5043531;28;20102;-71
2021/05/06 02:02:48;;;;;;;10.48;9.38;;;4.60;99.90;;;;;;5071464;28;20040;-71
2021/05/06 02:05:15;;;;;;;8.77;7.93;;;4.50;99.90;;;;;;5073974;28;20115;-71
2021/05/06 02:07:42;;;;;;;9.43;8.40;;;4.50;99.90;;;;;;5073894;28;20599;-71
2021/05/06 02:10:11;;;;;;;9.82;8.90;;;4.50;99.90;;;;;;5073522;28;20036;-72
2021/05/06 02:12:38;;;;;;;9.20;8.30;;;4.50;99.90;;;;;;5073738;28;20032;-71
2021/05/06 02:15:15;;;;;;;12.50;9.02;;;4.40;99.90;;;;;;5074049;28;20456;-71
2021/05/06 02:17:42;;;;;;;9.63;8.60;;;4.40;99.90;;;;;;5073033;28;20036;-71
2021/05/06 02:20:08;;;;;;;9.23;8.27;;;4.40;99.90;;;;;;5073907;28;20033;-72
2021/05/06 02:22:34;;;;;;;10.05;9.05;;;4.30;99.90;;;;;;5073475;28;20392;-71
2021/05/06 02:25:00;;;;;;;11.73;9.68;;;4.30;99.90;;;;;;5073085;28;20012;-71
2021/05/06 02:27:26;;;;;;;10.05;9.13;;;4.30;99.90;;;;;;5073797;28;20024;-72
2021/05/06 02:29:52;;;;;;;10.20;9.20;;;4.30;99.90;;;;;;5072838;28;20024;-72
2021/05/06 02:32:18;;;;;;;10.73;9.73;;;4.20;99.90;;;;;;5074123;28;20033;-72
2021/05/06 02:34:45;;;;;;;10.75;9.68;;;4.20;99.90;;;;;;5073506;28;20634;-72
2021/05/06 02:37:12;;;;;;;10.60;9.52;;;4.20;99.90;;;;;;5072861;28;20498;-72
2021/05/06 02:39:37;;;;;;;10.55;9.50;;;4.20;99.90;;;;;;5073606;28;20139;-73
2021/05/06 02:42:03;;;;;;;10.73;9.75;;;4.10;99.90;;;;;;5073445;28;20555;-72
2021/05/06 02:44:29;;;;;;;10.13;9.15;;;4.10;99.90;;;;;;5072615;28;20031;-72
2021/05/06 02:46:56;;;;;;;12.10;10.82;;;4.10;99.90;;;;;;5073061;28;20028;-72
2021/05/06 02:49:22;;;;;;;12.63;11.38;;;4.10;99.90;;;;;;5072961;28;20013;-72
2021/05/06 02:51:52;;;;;;;12.63;11.30;;;4.10;99.90;;;;;;5072723;28;20401;-71
2021/05/06 02:54:19;;;;;;;12.75;11.30;;;4.10;99.90;;;;;;5072919;28;20361;-71
2021/05/06 02:56:58;;;;;;;17.27;12.02;;;4.00;99.90;;;;;;5073279;28;20104;-71
2021/05/06 03:04:52;;;;;;;16.00;13.70;;;4.10;99.90;;;;;;5072956;28;20027;-71
2021/05/06 03:07:22;;;;;;;15.85;14.18;;;4.00;99.90;;;;;;5072103;28;20025;-71
2021/05/06 03:10:03;;;;;;;16.63;13.70;;;4.00;99.90;;;;;;5072551;28;20119;-71
2021/05/06 03:23:11;;;;;;;24.98;17.17;;;4.10;99.90;;;;;;5072715;28;20056;-72
2021/05/06 03:25:37;;;;;;;23.15;17.35;;;4.00;99.90;;;;;;5072243;28;20575;-71
2021/05/06 03:28:10;;;;;;;25.45;17.05;;;4.10;99.90;;;;;;5071970;28;20035;-71
2021/05/06 03:30:58;;;;;;;27.20;20.27;;;4.10;99.90;;;;;;5072371;28;20043;-71
2021/05/06 03:41:41;;;;;;;27.15;19.45;;;4.00;99.90;;;;;;5071060;28;20556;-71
2021/05/06 04:14:35;;;;;;;30.13;21.23;;;4.10;99.90;;;;;;5071686;28;20044;-73
2021/05/06 04:16:48;;;;;;;26.15;20.15;;;4.10;99.90;;;;;;5074691;28;20097;-73
2021/05/06 04:21:30;;;;;;;30.30;20.73;;;4.20;99.90;;;;;;5075599;28;20036;-73
2021/05/06 04:27:48;;;;;;;25.58;18.83;;;4.50;99.90;;;;;;5075520;28;20029;-72
2021/05/06 04:30:38;;;;;;;28.15;19.98;;;4.60;99.90;;;;;;5075077;28;20036;-72
2021/05/06 04:35:49;;;;;;;30.55;20.13;;;4.70;99.90;;;;;;5076090;28;20116;-72
2021/05/06 04:38:18;;;;;;;24.65;19.33;;;4.80;99.90;;;;;;5074842;28;20457;-72
2021/05/06 04:53:51;;;;;;;22.35;17.30;;;4.80;99.90;;;;;;5075347;28;20036;-71
2021/05/06 05:06:47;;;;;;;21.88;16.52;;;4.60;99.90;;;;;;5074821;28;20024;-72
2021/05/06 05:11:51;;;;;;;19.70;14.55;;;4.60;99.90;;;;;;5074715;28;20020;-73
2021/05/06 05:27:24;;;;;;;13.48;11.02;;;4.70;99.90;;;;;;5074160;28;20029;-72
2021/05/06 05:29:51;;;;;;;12.10;10.50;;;4.70;99.90;;;;;;5073201;28;20529;-72
2021/05/06 05:32:17;;;;;;;11.75;10.25;;;4.70;99.90;;;;;;5074378;28;20036;-72
2021/05/06 05:34:47;;;;;;;11.32;9.82;;;4.80;99.90;;;;;;5073961;28;20033;-71
2021/05/06 05:37:18;;;;;;;10.63;9.43;;;4.90;99.90;;;;;;5074362;28;20059;-72
2021/05/06 05:55:53;;;;;;;8.60;7.72;;;5.30;99.90;;;;;;5073422;28;20095;-73
2021/05/06 05:58:19;;;;;;;8.15;7.22;;;5.50;99.90;;;;;;5073712;28;20055;-71
2021/05/06 06:00:45;;;;;;;8.10;6.78;;;5.70;99.90;;;;;;5073828;28;20025;-73
2021/05/06 06:03:11;;;;;;;11.15;7.03;;;5.90;99.90;;;;;;5073134;28;20046;-73
2021/05/06 06:05:39;;;;;;;7.65;5.90;;;6.00;99.90;;;;;;5073716;28;20479;-73
2021/05/06 06:08:04;;;;;;;10.23;6.57;;;6.10;99.90;;;;;;5072915;28;20087;-73
2021/05/06 06:10:30;;;;;;;9.10;6.60;;;6.20;99.90;;;;;;5073878;28;20542;-72
2021/05/06 06:12:55;;;;;;;11.32;7.93;;;6.20;99.90;;;;;;5073675;28;20029;-72
2021/05/06 06:17:48;;;;;;;12.63;10.75;;;6.20;99.90;;;;;;5073465;28;20032;-71
2021/05/06 06:20:13;;;;;;;13.13;10.00;;;6.20;99.90;;;;;;5073200;28;20450;-72
2021/05/06 06:22:39;;;;;;;16.80;10.90;;;6.40;99.90;;;;;;5073197;28;20086;-72
2021/05/06 06:25:05;;;;;;;17.38;12.50;;;6.50;99.90;;;;;;5073344;28;20021;-73
2021/05/06 06:27:31;;;;;;;15.43;11.00;;;6.50;99.90;;;;;;5073246;28;20024;-72
2021/05/06 06:29:57;;;;;;;14.48;10.93;;;6.60;99.90;;;;;;5073070;28;20342;-72
2021/05/06 06:32:23;;;;;;;16.02;11.60;;;6.60;99.90;;;;;;5073024;28;20071;-73
2021/05/06 06:34:49;;;;;;;13.38;12.05;;;6.60;99.90;;;;;;5073014;28;20020;-72
2021/05/06 06:37:15;;;;;;;22.35;14.43;;;6.70;99.90;;;;;;5071558;28;20423;-72
2021/05/06 06:39:42;;;;;;;20.73;14.13;;;6.70;99.90;;;;;;5073296;28;20020;-72
2021/05/06 06:42:09;;;;;;;14.60;12.68;;;6.70;99.90;;;;;;5072887;28;20052;-72
2021/05/06 06:44:36;;;;;;;17.77;13.32;;;6.80;99.90;;;;;;5072278;28;20025;-72
2021/05/06 06:47:06;;;;;;;16.35;12.48;;;6.80;99.90;;;;;;5072944;28;20032;-72
2021/05/06 06:49:41;;;;;;;16.38;12.88;;;6.90;99.90;;;;;;5072786;28;20020;-72
2021/05/06 06:52:09;;;;;;;14.48;12.65;;;6.90;99.90;;;;;;5072568;28;20397;-72
2021/05/06 06:54:35;;;;;;;15.02;13.43;;;7.00;99.90;;;;;;5059219;28;20016;-72
2021/05/06 06:57:02;;;;;;;16.08;12.70;;;7.10;99.90;;;;;;5073350;28;20020;-72
2021/05/06 06:59:27;;;;;;;16.55;13.48;;;7.10;99.90;;;;;;5071767;28;20047;-72
2021/05/06 07:01:53;;;;;;;18.52;12.73;;;7.20;99.90;;;;;;5072823;28;20052;-73
2021/05/06 07:04:19;;;;;;;16.70;13.57;;;7.30;99.90;;;;;;5071724;28;20024;-73
2021/05/06 07:06:44;;;;;;;15.23;13.07;;;7.40;99.90;;;;;;5072875;28;20040;-73
2021/05/06 07:09:11;;;;;;;19.58;13.85;;;7.50;99.90;;;;;;5072737;28;20514;-72
2021/05/06 07:11:37;;;;;;;17.98;14.45;;;7.60;99.90;;;;;;5071543;28;20086;-72
2021/05/06 07:14:04;;;;;;;21.52;14.90;;;7.80;99.90;;;;;;5072394;28;20031;-72
2021/05/06 07:16:30;;;;;;;18.65;14.20;;;7.90;99.90;;;;;;5072355;28;20024;-73
2021/05/06 07:18:57;;;;;;;16.83;13.98;;;8.00;99.90;;;;;;5071813;28;20024;-73
2021/05/06 07:21:24;;;;;;;19.35;15.13;;;8.10;99.90;;;;;;5072007;28;20035;-72
2021/05/06 07:23:53;;;;;;;16.88;14.02;;;8.10;99.90;;;;;;5072464;28;20021;-73
2021/05/06 07:26:19;;;;;;;19.05;14.60;;;8.30;99.90;;;;;;5071143;28;20367;-72
2021/05/06 07:28:44;;;;;;;22.58;15.00;;;8.30;99.90;;;;;;5071735;28;20112;-73
2021/05/06 07:31:12;;;;;;;15.88;14.00;;;8.40;99.90;;;;;;5072304;28;20510;-73
2021/05/06 07:33:39;;;;;;;17.80;14.98;;;8.40;99.90;;;;;;5071102;28;20025;-72
2021/05/06 07:36:05;;;;;;;15.98;13.00;;;8.50;99.90;;;;;;5072144;28;20032;-73
2021/05/06 07:38:31;;;;;;;15.10;13.48;;;8.50;99.90;;;;;;5071784;28;20461;-73
2021/05/06 07:41:00;;;;;;;16.10;13.95;;;8.50;99.90;;;;;;5071345;28;20046;-73
2021/05/06 07:43:26;;;;;;;17.52;13.73;;;8.40;99.90;;;;;;5071447;28;20040;-73
2021/05/06 07:45:58;;;;;;;18.40;14.48;;;8.60;99.90;;;;;;5072368;28;20107;-73
2021/05/06 07:48:24;;;;;;;16.67;14.00;;;8.60;99.90;;;;;;5070427;28;20024;-72
2021/05/06 07:50:50;;;;;;;15.65;14.00;;;8.70;99.90;;;;;;5072076;28;20012;-73
2021/05/06 07:53:21;;;;;;;19.27;14.50;;;8.90;99.90;;;;;;5071939;28;20084;-73
2021/05/06 07:55:46;;;;;;;18.05;12.98;;;9.00;99.90;;;;;;5071600;28;20032;-73
2021/05/06 07:58:12;;;;;;;15.65;12.15;;;9.10;99.90;;;;;;5072142;28;20486;-73
2021/05/06 08:00:38;;;;;;;12.73;11.43;;;9.20;99.90;;;;;;5071139;28;20111;-74
2021/05/06 08:03:06;;;;;;;12.32;11.05;;;9.30;99.90;;;;;;5071822;28;20530;-73
2021/05/06 08:05:31;;;;;;;13.90;11.90;;;9.70;99.90;;;;;;5071355;28;20048;-73
2021/05/06 08:07:57;;;;;;;14.98;12.13;;;9.50;99.90;;;;;;5070696;28;20499;-73
2021/05/06 08:10:23;;;;;;;14.73;11.98;;;9.50;99.90;;;;;;5071149;28;20036;-73
2021/05/06 08:12:49;;;;;;;14.77;11.63;;;9.60;99.90;;;;;;5071831;28;20037;-74
2021/05/06 08:15:15;;;;;;;16.60;13.02;;;9.70;99.90;;;;;;5070712;28;20462;-73
2021/05/06 08:17:44;;;;;;;16.50;12.20;;;9.90;99.90;;;;;;5071790;28;20029;-73
2021/05/06 08:20:13;;;;;;;15.18;11.90;;;10.00;99.90;;;;;;5071905;28;20033;-72
2021/05/06 08:22:39;;;;;;;13.52;11.18;;;10.20;99.90;;;;;;5071168;28;20032;-72
2021/05/06 08:25:06;;;;;;;14.23;11.75;;;10.30;99.90;;;;;;5071446;28;20024;-74
2021/05/06 08:27:32;;;;;;;12.10;10.27;;;10.30;99.90;;;;;;5071148;28;20024;-73
2021/05/06 08:29:59;;;;;;;13.93;11.02;;;10.50;99.90;;;;;;5071011;28;20020;-74
2021/05/06 08:32:25;;;;;;;11.88;9.35;;;10.60;99.90;;;;;;5071635;28;20036;-72
2021/05/06 08:34:51;;;;;;;11.60;10.13;;;10.80;99.90;;;;;;5071673;28;20484;-73
2021/05/06 08:37:16;;;;;;;15.32;11.25;;;10.90;99.90;;;;;;5070625;28;20115;-73
2021/05/06 08:39:43;;;;;;;16.80;11.80;;;10.90;99.90;;;;;;5071683;28;20373;-73
2021/05/06 08:42:11;;;;;;;11.43;9.98;;;11.00;99.90;;;;;;5071387;28;20045;-73
2021/05/06 08:44:37;;;;;;;15.05;10.30;;;11.10;99.90;;;;;;5070761;28;20476;-72
2021/05/06 08:47:12;;;;;;;14.82;11.68;;;11.00;99.90;;;;;;5071381;28;20036;-73
2021/05/06 08:49:38;;;;;;;13.50;11.82;;;10.90;99.90;;;;;;5071248;28;20158;-73
2021/05/06 08:52:06;;;;;;;14.38;11.07;;;10.80;99.90;;;;;;5071268;28;20024;-73
2021/05/06 08:54:32;;;;;;;14.32;11.98;;;10.70;99.90;;;;;;5071242;28;20025;-73
2021/05/06 08:56:58;;;;;;;11.65;10.45;;;10.50;99.90;;;;;;5070858;28;20032;-74
2021/05/06 08:59:27;;;;;;;16.08;10.85;;;10.50;99.90;;;;;;5071208;28;20111;-73
2021/05/06 09:01:57;;;;;;;14.65;13.02;;;10.60;99.90;;;;;;5075104;28;20032;-74
2021/05/06 09:04:23;;;;;;;12.68;11.40;;;10.70;99.90;;;;;;5073971;28;20062;-73
2021/05/06 09:06:56;;;;;;;11.70;10.52;;;10.90;99.90;;;;;;5075282;28;20032;-73
2021/05/06 09:09:27;;;;;;;13.43;10.10;;;11.10;99.90;;;;;;5074850;28;20130;-73
2021/05/06 09:11:55;;;;;;;11.10;9.93;;;11.30;99.90;;;;;;5074603;28;20055;-72
2021/05/06 09:14:44;;;;;;;11.15;10.05;;;11.50;99.90;;;;;;5074856;28;20102;-73
2021/05/06 09:17:33;;;;;;;11.60;10.40;;;11.50;99.90;;;;;;5075230;28;20021;-73
2021/05/06 09:20:05;;;;;;;10.82;9.43;;;11.60;99.90;;;;;;5074467;28;20380;-73
2021/05/06 09:22:51;;;;;;;10.48;9.45;;;11.60;99.90;;;;;;5074599;28;20059;-73
2021/05/06 09:25:33;;;;;;;13.77;11.25;;;11.60;99.90;;;;;;5060589;28;20016;-73
2021/05/06 09:28:17;;;;;;;11.13;10.00;;;11.60;99.90;;;;;;5074719;28;20033;-73
2021/05/06 09:31:01;;;;;;;13.27;11.10;;;11.70;99.90;;;;;;5074903;28;20032;-73
2021/05/06 09:33:36;;;;;;;10.60;8.32;;;11.80;99.90;;;;;;5073379;28;20032;-73
2021/05/06 09:36:19;;;;;;;10.45;9.35;;;11.90;99.90;;;;;;5074362;28;20443;-74
2021/05/06 09:38:49;;;;;;;12.60;9.73;;;12.00;99.90;;;;;;5074515;28;20074;-74
2021/05/06 09:41:28;;;;;;;14.48;9.00;;;12.20;99.90;;;;;;5073708;28;20524;-75
2021/05/06 09:44:05;;;;;;;9.15;7.97;;;12.30;99.90;;;;;;5074286;28;20044;-74
2021/05/06 09:46:35;;;;;;;8.40;7.60;;;12.30;99.90;;;;;;5073475;28;20372;-73
2021/05/06 09:49:03;;;;;;;10.38;8.23;;;12.40;99.90;;;;;;5074576;28;20048;-73
2021/05/06 09:51:44;;;;;;;9.15;7.75;;;12.50;99.90;;;;;;5074390;28;20116;-73
2021/05/06 09:54:15;;;;;;;11.80;7.65;;;12.60;99.90;;;;;;5073917;28;20141;-72
2021/05/06 09:56:43;;;;;;;8.93;7.65;;;12.70;99.90;;;;;;5074186;28;20031;-73
2021/05/06 09:59:09;;;;;;;8.35;7.55;;;12.80;99.90;;;;;;5074550;28;20036;-73
2021/05/06 10:01:44;;;;;;;9.25;8.20;;;12.90;99.90;;;;;;5073228;28;20020;-73
2021/05/06 10:04:19;;;;;;;7.25;6.35;;;13.10;99.90;;;;;;5074208;28;20089;-73
2021/05/06 10:07:08;;;;;;;6.65;6.00;;;13.20;99.90;;;;;;5074065;28;20028;-74
2021/05/06 10:09:47;;;;;;;7.93;7.25;;;13.20;98.50;;;;;;5064081;28;20431;-74
2021/05/06 10:12:12;;;;;;;7.28;6.57;;;13.20;99.30;;;;;;5072949;28;20031;-74
2021/05/06 10:14:38;;;;;;;7.35;6.53;;;13.00;97.60;;;;;;5073045;28;20028;-74
2021/05/06 10:17:04;;;;;;;4.82;4.10;;;12.80;99.90;;;;;;5074100;28;20082;-74
2021/05/06 10:19:29;;;;;;;5.18;4.60;;;12.50;99.90;;;;;;5073082;28;20020;-74
2021/05/06 10:21:55;;;;;;;4.15;3.60;;;12.00;99.90;;;;;;5073178;28;20025;-74
2021/05/06 10:24:21;;;;;;;2.90;2.70;;;11.60;99.90;;;;;;5073314;28;20060;-73
2021/05/06 10:26:49;;;;;;;3.63;3.33;;;11.30;99.90;;;;;;5068826;28;20032;-73
2021/05/06 10:29:16;;;;;;;4.43;4.03;;;11.00;99.90;;;;;;5070122;28;20434;-72
2021/05/06 10:31:45;;;;;;;5.03;3.88;;;10.60;99.90;;;;;;5073169;28;20025;-73
2021/05/06 10:34:12;;;;;;;4.30;3.90;;;10.50;99.90;;;;;;5072292;28;20040;-74
2021/05/06 10:36:39;;;;;;;4.70;3.70;;;10.50;99.90;;;;;;5072624;28;20024;-75
2021/05/06 10:39:12;;;;;;;5.85;3.30;;;10.40;99.90;;;;;;5071149;28;20067;-74
2021/05/06 10:41:38;;;;;;;3.17;2.50;;;10.40;99.90;;;;;;5071446;28;20465;-76
2021/05/06 10:44:11;;;;;;;3.53;2.75;;;10.60;99.90;;;;;;5073525;28;20024;-75
2021/05/06 10:47:00;;;;;;;5.57;3.40;;;10.60;99.90;;;;;;5071555;28;20028;-75
2021/05/06 10:49:37;;;;;;;4.93;3.35;;;10.80;99.90;;;;;;5074923;28;20024;-77
2021/05/06 10:52:07;;;;;;;3.47;3.05;;;10.80;99.90;;;;;;5076975;28;20033;-76
2021/05/06 10:54:59;;;;;;;5.18;4.03;;;10.90;99.90;;;;;;5074328;28;20055;-76
2021/05/06 10:57:34;;;;;;;5.60;3.97;;;11.00;99.90;;;;;;5070859;28;20502;-75
2021/05/06 11:00:00;;;;;;;6.40;3.85;;;11.00;99.90;;;;;;5075686;28;20020;-76
2021/05/06 11:02:40;;;;;;;5.07;3.35;;;11.00;99.90;;;;;;5077773;28;20116;-76
2021/05/06 11:05:13;;;;;;;4.90;3.60;;;11.00;99.90;;;;;;5080132;28;20025;-76
2021/05/06 11:07:40;;;;;;;4.40;3.97;;;11.00;99.90;;;;;;5079079;28;20035;-77
2021/05/06 11:10:07;;;;;;;3.70;3.25;;;11.20;99.90;;;;;;5077516;28;20498;-77
2021/05/06 11:12:40;;;;;;;3.95;3.38;;;11.30;99.90;;;;;;5073919;28;20122;-78
2021/05/06 11:15:08;;;;;;;4.05;3.33;;;11.50;99.90;;;;;;5074762;28;20016;-74
2021/05/06 11:17:46;;;;;;;3.78;3.35;;;11.60;99.90;;;;;;5073645;28;20027;-73
2021/05/06 11:20:12;;;;;;;4.65;3.47;;;11.80;99.90;;;;;;5072591;28;20042;-78
2021/05/06 11:22:43;;;;;;;3.75;3.45;;;11.80;99.90;;;;;;5074740;28;20543;-76
2021/05/06 11:25:41;;;;;;;5.57;4.30;;;12.00;99.90;;;;;;5064982;28;20443;-76
2021/05/06 11:28:07;;;;;;;3.97;3.40;;;11.90;99.90;;;;;;5072657;28;20032;-74
2021/05/06 11:30:49;;;;;;;5.70;3.90;;;11.60;99.90;;;;;;5072888;28;20086;-74
2021/05/06 11:33:20;;;;;;;5.40;4.72;;;11.30;99.90;;;;;;5073539;28;20037;-76
2021/05/06 11:36:11;;;;;;;6.70;4.18;;;10.80;99.90;;;;;;5073666;28;20017;-75
2021/05/06 11:38:40;;;;;;;5.50;3.75;;;10.10;99.90;;;;;;5072016;28;20020;-73
2021/05/06 11:41:17;;;;;;;3.58;3.00;;;10.20;99.90;;;;;;5065304;28;20103;-79
2021/05/06 11:43:50;;;;;;;3.95;2.78;;;9.80;99.90;;;;;;5075147;28;20269;-77
2021/05/06 11:46:19;;;;;;;3.00;2.70;;;9.50;99.90;;;;;;5068922;28;20179;-79
2021/05/06 11:48:49;;;;;;;7.50;2.80;;;9.20;99.90;;;;;;5073819;28;20024;-76
2021/05/06 11:51:38;;;;;;;3.42;2.90;;;9.10;99.90;;;;;;5072560;28;20020;-76
2021/05/06 11:54:07;;;;;;;2.97;2.72;;;9.10;99.90;;;;;;5071185;28;20090;-76
2021/05/06 11:56:36;;;;;;;6.43;2.72;;;9.30;99.90;;;;;;5071807;28;20060;-77
2021/05/06 11:59:04;;;;;;;3.30;2.67;;;9.60;99.90;;;;;;5072096;28;20036;-73
2021/05/06 12:01:30;;;;;;;3.30;2.60;;;10.00;99.90;;;;;;5066143;28;20056;-76
2021/05/06 12:03:56;;;;;;;2.10;2.00;;;10.30;99.90;;;;;;5080209;28;20058;-76
2021/05/06 12:06:48;;;;;;;2.30;2.10;;;10.60;99.90;;;;;;5082313;28;20371;-76
2021/05/06 12:09:21;;;;;;;1.67;1.50;;;10.90;99.90;;;;;;5075637;28;20040;-76
2021/05/06 12:11:47;;;;;;;2.05;1.83;;;11.20;99.90;;;;;;5074079;28;20019;-79
2021/05/06 12:14:14;;;;;;;2.05;1.88;;;11.10;99.90;;;;;;5069797;28;20028;-76
2021/05/06 12:16:39;;;;;;;1.98;1.80;;;11.10;99.90;;;;;;5079627;28;20073;-77
2021/05/06 12:19:12;;;;;;;2.33;2.13;;;11.20;99.90;;;;;;5084038;28;20023;-78
2021/05/06 12:21:47;;;;;;;2.65;2.15;;;11.20;99.90;;;;;;5079938;28;20044;-78
2021/05/06 12:24:35;;;;;;;2.05;1.90;;;11.40;99.90;;;;;;5069792;28;20036;-77
2021/05/06 12:27:21;;;;;;;2.78;2.20;;;11.60;99.90;;;;;;5069907;28;20040;-78
2021/05/06 12:29:47;;;;;;;3.40;2.60;;;11.80;99.90;;;;;;5073619;28;20032;-76
2021/05/06 12:32:22;;;;;;;3.83;2.33;;;11.90;99.90;;;;;;5076774;28;20036;-78
2021/05/06 12:34:49;;;;;;;3.30;2.40;;;12.10;99.20;;;;;;5071654;28;20392;-77
2021/05/06 12:37:18;;;;;;;6.90;2.85;;;12.10;98.10;;;;;;5079708;28;20039;-77
2021/05/06 12:39:47;;;;;;;3.10;2.80;;;12.10;99.90;;;;;;5079691;28;20027;-77
2021/05/06 12:42:13;;;;;;;5.93;2.67;;;12.20;98.80;;;;;;5083357;28;20044;-77
2021/05/06 12:44:45;;;;;;;4.22;3.22;;;12.20;98.70;;;;;;5081924;28;20028;-76
2021/05/06 12:47:20;;;;;;;3.15;2.92;;;12.20;98.10;;;;;;5075517;28;20491;-77
2021/05/06 12:50:06;;;;;;;3.33;2.60;;;12.20;98.30;;;;;;5089725;28;20429;-77
2021/05/06 12:52:31;;;;;;;4.38;2.60;;;12.10;96.40;;;;;;5076670;28;20040;-77
2021/05/06 12:54:57;;;;;;;3.65;2.30;;;12.10;96.20;;;;;;5080903;28;20027;-77
2021/05/06 12:57:23;;;;;;;4.07;2.72;;;12.30;97.70;;;;;;5075063;28;20207;-78
2021/05/06 12:59:49;;;;;;;3.53;2.70;;;12.40;96.30;;;;;;5078129;28;20017;-78
2021/05/06 13:02:16;;;;;;;4.93;3.05;;;12.60;96.80;;;;;;5073223;28;20090;-77
2021/05/06 13:04:49;;;;;;;5.15;3.22;;;12.80;95.60;;;;;;5085565;28;20027;-78
2021/05/06 13:07:19;;;;;;;6.40;3.35;;;12.80;94.10;;;;;;5082274;28;20106;-78
2021/05/06 13:09:50;;;;;;;4.13;3.75;;;13.00;95.40;;;;;;5084541;28;20107;-79
2021/05/06 13:12:18;;;;;;;3.55;3.25;;;13.10;95.30;;;;;;5083240;28;20045;-78
2021/05/06 13:15:03;;;;;;;4.15;3.75;;;13.30;95.30;;;;;;5072893;28;20111;-78
2021/05/06 13:17:35;;;;;;;4.22;3.47;;;13.40;94.70;;;;;;5079856;28;20032;-78
2021/05/06 13:20:36;;;;;;;4.90;3.45;;;13.40;93.50;;;;;;5073960;28;20502;-79
2021/05/06 13:23:10;;;;;;;3.97;3.22;;;13.60;94.80;;;;;;5057703;28;20093;-76
2021/05/06 13:25:56;;;;;;;6.28;3.55;;;13.60;92.00;;;;;;5078799;28;20043;-76
2021/05/06 13:28:31;;;;;;;5.75;3.42;;;13.70;94.70;;;;;;5070877;28;20052;-76
2021/05/06 13:31:14;;;;;;;3.53;3.22;;;13.70;90.80;;;;;;5074256;28;20024;-75
2021/05/06 13:33:41;;;;;;;4.18;3.20;;;13.50;90.70;;;;;;5078268;28;20046;-78
2021/05/06 13:36:17;;;;;;;5.20;3.58;;;13.30;90.40;;;;;;5074482;28;20404;-76
2021/05/06 13:38:59;;;;;;;5.97;3.28;;;13.10;90.60;;;;;;5072692;28;20609;-74
2021/05/06 13:41:27;;;;;;;7.95;3.17;;;13.00;90.60;;;;;;5069292;28;20469;-78
2021/05/06 13:43:54;;;;;;;3.67;2.65;;;13.00;91.80;;;;;;5072297;28;20080;-78
2021/05/06 13:46:21;;;;;;;6.25;3.00;;;12.90;90.50;;;;;;5073769;28;20031;-78
2021/05/06 13:48:47;;;;;;;5.00;3.10;;;12.90;90.00;;;;;;5072739;28;20023;-79
2021/05/06 13:51:14;;;;;;;5.97;3.03;;;12.90;89.20;;;;;;5080900;28;20036;-78
2021/05/06 13:53:41;;;;;;;7.22;2.83;;;12.90;90.80;;;;;;5079488;28;20029;-78
2021/05/06 13:56:07;;;;;;;5.07;2.85;;;13.00;91.30;;;;;;5077392;28;20470;-78
2021/05/06 13:58:33;;;;;;;5.50;3.17;;;13.20;90.90;;;;;;5077610;28;20039;-78
2021/05/06 14:01:00;;;;;;;9.35;3.08;;;13.30;90.10;;;;;;5074475;28;20016;-79
2021/05/06 14:03:36;;;;;;;5.03;3.17;;;13.40;88.70;;;;;;5078846;28;20031;-78
2021/05/06 14:06:03;;;;;;;5.13;3.22;;;13.40;87.40;;;;;;5077427;28;20496;-80
2021/05/06 14:08:29;;;;;;;3.42;2.70;;;13.50;89.10;;;;;;5083886;28;20555;-80
2021/05/06 14:10:55;;;;;;;4.25;3.50;;;13.60;88.20;;;;;;5080028;28;20035;-79
2021/05/06 14:13:23;;;;;;;3.97;2.97;;;13.60;88.20;;;;;;5076151;28;20111;-77
2021/05/06 14:15:49;;;;;;;6.15;3.95;;;13.60;87.70;;;;;;5076180;28;20020;-77
2021/05/06 14:18:16;;;;;;;3.67;3.35;;;13.60;86.50;;;;;;5074090;28;20036;-75
2021/05/06 14:20:43;;;;;;;6.10;3.47;;;13.60;86.00;;;;;;5074631;28;20103;-76
2021/05/06 14:23:12;;;;;;;3.67;3.15;;;13.60;86.60;;;;;;5074652;28;20427;-78
2021/05/06 14:25:38;;;;;;;4.97;3.13;;;13.70;87.90;;;;;;5076205;28;20020;-77
2021/05/06 14:28:05;;;;;;;6.03;3.63;;;13.60;88.40;;;;;;5074527;28;20044;-76
2021/05/06 14:30:32;;;;;;;3.72;3.42;;;13.70;89.60;;;;;;5075958;28;20032;-75
2021/05/06 14:32:58;;;;;;;5.55;3.95;;;13.30;85.10;;;;;;5076046;28;20037;-77
2021/05/06 14:35:24;;;;;;;4.10;3.58;;;13.30;87.10;;;;;;5077354;28;20060;-78
2021/05/06 14:37:50;;;;;;;8.85;3.85;;;13.10;84.20;;;;;;5077034;28;20041;-77
2021/05/06 14:40:16;;;;;;;5.10;3.25;;;13.10;86.90;;;;;;5073023;28;20112;-77
2021/05/06 14:42:42;;;;;;;4.25;3.85;;;13.10;87.70;;;;;;5073167;28;20102;-76
2021/05/06 14:45:10;;;;;;;4.93;3.92;;;13.10;88.50;;;;;;5074271;28;20078;-77
2021/05/06 14:47:37;;;;;;;10.63;4.38;;;13.10;89.70;;;;;;5062121;28;20028;-77
2021/05/06 14:50:05;;;;;;;7.78;4.60;;;13.10;91.30;;;;;;5072963;28;20128;-77
2021/05/06 14:52:31;;;;;;;6.88;4.43;;;12.90;91.60;;;;;;5073984;28;20211;-77
2021/05/06 14:54:56;;;;;;;5.40;3.83;;;12.70;91.30;;;;;;5074588;28;20125;-77
2021/05/06 14:57:22;;;;;;;5.40;3.97;;;12.40;92.80;;;;;;5066211;28;20044;-77
2021/05/06 14:59:48;;;;;;;4.88;3.60;;;12.40;93.50;;;;;;5073937;28;20381;-74
2021/05/06 15:02:16;;;;;;;3.80;3.50;;;12.40;93.60;;;;;;5073230;28;20431;-77
2021/05/06 15:04:41;;;;;;;6.57;3.65;;;12.50;93.80;;;;;;5072799;28;20035;-77
2021/05/06 15:07:07;;;;;;;3.63;3.33;;;12.50;93.50;;;;;;5075628;28;20480;-78
2021/05/06 15:09:32;;;;;;;5.18;3.58;;;12.50;93.80;;;;;;5072197;28;20097;-77
2021/05/06 15:11:59;;;;;;;4.63;4.15;;;12.50;94.20;;;;;;5074166;28;20021;-75
2021/05/06 15:14:26;;;;;;;4.28;3.88;;;12.40;94.80;;;;;;5073388;28;20029;-79
2021/05/06 15:16:51;;;;;;;4.45;3.78;;;12.50;95.40;;;;;;5077046;28;20023;-81
2021/05/06 15:19:18;;;;;;;5.68;4.80;;;12.40;96.60;;;;;;5084366;28;20387;-82
2021/05/06 15:21:47;;;;;;;5.80;4.60;;;12.40;99.30;;;;;;5073016;28;20047;-81
2021/05/06 15:24:13;;;;;;;6.55;4.20;;;12.20;99.90;;;;;;5073335;28;20028;-81
2021/05/06 15:26:38;;;;;;;4.80;4.25;;;12.00;99.90;;;;;;5079339;28;20514;-80
2021/05/06 15:29:04;;;;;;;6.28;4.15;;;11.80;99.90;;;;;;5076034;28;20020;-80
2021/05/06 15:31:36;;;;;;;10.18;4.95;;;11.70;99.90;;;;;;5069122;28;20024;-79
2021/05/06 15:34:02;;;;;;;7.28;4.40;;;11.50;99.90;;;;;;5071792;28;20040;-79
2021/05/06 15:36:29;;;;;;;6.93;4.18;;;11.40;99.90;;;;;;5071817;28;20021;-79
2021/05/06 15:38:55;;;;;;;7.00;3.97;;;11.20;99.90;;;;;;5067372;28;20028;-78
2021/05/06 15:41:20;;;;;;;7.63;4.05;;;11.00;99.90;;;;;;5074419;28;20026;-79
2021/05/06 15:43:46;;;;;;;4.35;3.97;;;10.60;99.90;;;;;;5072070;28;20076;-79
2021/05/06 15:46:11;;;;;;;4.30;3.63;;;10.30;99.90;;;;;;5069350;28;20376;-75
2021/05/06 15:48:37;;;;;;;4.88;3.90;;;10.10;99.90;;;;;;5070761;28;20099;-74
2021/05/06 15:51:04;;;;;;;4.50;4.10;;;9.90;99.90;;;;;;5069880;28;20086;-75
2021/05/06 15:53:30;;;;;;;4.88;4.10;;;9.70;99.90;;;;;;5074799;28;20040;-75
2021/05/06 15:55:58;;;;;;;5.10;4.15;;;9.50;99.90;;;;;;5074418;28;20092;-75
2021/05/06 15:58:24;;;;;;;5.65;3.58;;;9.50;99.90;;;;;;5071911;28;20024;-77
2021/05/06 16:00:54;;;;;;;4.00;3.60;;;9.40;99.90;;;;;;5080412;28;20016;-77
2021/05/06 16:03:20;;;;;;;5.45;4.00;;;9.40;99.90;;;;;;5075665;28;20111;-75
2021/05/06 16:05:52;;;;;;;4.95;4.43;;;9.40;99.90;;;;;;5071689;28;20037;-75
2021/05/06 16:08:18;;;;;;;5.60;3.53;;;9.30;99.90;;;;;;5072098;28;20024;-76